createdAt,value
2022-07-29T00:01:59.222Z,5.53
2022-07-29T00:07:01.583Z,7.55
2022-07-29T00:12:04.245Z,6.53
2022-07-29T00:17:06.699Z,8.00
2022-07-29T00:22:09.130Z,6.00
2022-07-29T00:27:11.429Z,7.47
2022-07-29T00:32:13.788Z,5.47
2022-07-29T00:37:16.042Z,5.50
2022-07-29T00:42:18.712Z,4.45
2022-07-29T00:47:21.240Z,6.75
2022-07-29T00:52:23.675Z,6.63
2022-07-29T00:57:26.180Z,7.65
2022-07-29T01:02:28.393Z,6.93
2022-07-29T01:07:32.077Z,8.95
2022-07-29T01:12:37.052Z,7.53
2022-07-29T01:17:50.377Z,8.05
2022-07-29T01:23:20.660Z,5.63
2022-07-29T01:28:41.450Z,6.63
2022-07-29T01:33:50.518Z,7.15
2022-07-29T01:39:04.121Z,7.50
2022-07-29T01:44:34.511Z,9.52
2022-07-29T01:49:40.612Z,6.45
2022-07-29T01:54:55.517Z,8.70
2022-07-29T01:59:59.670Z,9.43
2022-07-29T02:05:03.767Z,8.43
2022-07-29T02:10:08.663Z,9.32
2022-07-29T02:15:13.322Z,5.45
2022-07-29T02:20:18.548Z,7.85
2022-07-29T02:25:23.570Z,8.32
2022-07-29T02:30:28.161Z,13.15
2022-07-29T02:35:34.837Z,9.93
2022-07-29T02:40:40.435Z,7.65
2022-07-29T02:45:44.178Z,7.53
2022-07-29T02:50:53.363Z,9.32
2022-07-29T02:56:02.056Z,8.75
2022-07-29T03:01:08.703Z,9.57
2022-07-29T03:06:37.831Z,8.35
2022-07-29T03:11:44.300Z,15.18
2022-07-29T03:16:53.869Z,18.60
2022-07-29T03:27:00.935Z,8.88
2022-07-29T03:32:08.425Z,6.65
2022-07-29T03:37:11.316Z,10.32
2022-07-29T03:42:16.746Z,7.25
2022-07-29T03:47:43.456Z,6.55
2022-07-29T03:52:48.307Z,9.63
2022-07-29T03:57:51.206Z,6.85
2022-07-29T04:02:53.408Z,8.00
2022-07-29T04:07:55.809Z,6.03
2022-07-29T04:13:14.593Z,11.18
2022-07-29T04:18:37.317Z,8.98
2022-07-29T04:24:00.268Z,8.10
2022-07-29T04:29:09.191Z,9.82
2022-07-29T04:34:11.865Z,12.02
2022-07-29T04:39:17.027Z,8.65
2022-07-29T04:44:21.690Z,8.23
2022-07-29T04:49:31.310Z,7.97
2022-07-29T04:54:34.390Z,7.50
2022-07-29T05:04:39.037Z,7.00
2022-07-29T05:09:41.488Z,10.13
2022-07-29T05:14:43.855Z,9.02
2022-07-29T05:19:46.234Z,7.70
2022-07-29T05:24:48.886Z,6.00
2022-07-29T05:29:51.223Z,9.98
2022-07-29T05:34:53.543Z,9.98
2022-07-29T05:39:56.898Z,5.40
2022-07-29T05:44:59.771Z,8.05
2022-07-29T05:50:02.176Z,6.45
2022-07-29T05:55:06.882Z,6.75
2022-07-29T06:00:09.791Z,5.10
2022-07-29T06:05:17.238Z,8.98
2022-07-29T06:10:20.271Z,7.32
2022-07-29T06:15:26.248Z,8.63
2022-07-29T06:20:31.751Z,4.70
2022-07-29T06:25:36.759Z,6.45
2022-07-29T06:30:39.924Z,5.30
2022-07-29T06:35:44.714Z,6.28
2022-07-29T06:41:01.886Z,5.72
2022-07-29T06:46:06.662Z,6.30
2022-07-29T06:51:09.986Z,6.95
2022-07-29T07:01:16.746Z,4.13
2022-07-29T07:06:19.070Z,5.40
2022-07-29T07:11:21.954Z,6.38
2022-07-29T07:16:24.260Z,5.40
2022-07-29T07:21:26.642Z,7.63
2022-07-29T07:26:32.698Z,4.15
2022-07-29T07:31:35.023Z,5.72
2022-07-29T07:36:37.301Z,5.00
2022-07-29T07:41:39.585Z,6.47
2022-07-29T07:46:41.913Z,4.78
2022-07-29T07:51:44.623Z,6.53
2022-07-29T07:56:53.538Z,5.47
2022-07-29T08:01:56.789Z,4.28
2022-07-29T08:07:00.348Z,5.75
2022-07-29T08:12:07.030Z,4.63
2022-07-29T08:17:09.489Z,5.20
2022-07-29T08:22:11.925Z,4.55
2022-07-29T08:27:40.847Z,4.03
2022-07-29T08:32:53.111Z,4.88
2022-07-29T08:37:58.111Z,4.78
2022-07-29T08:43:06.443Z,6.18
2022-07-29T08:48:10.149Z,4.95
2022-07-29T08:53:14.197Z,4.32
2022-07-29T08:58:17.311Z,4.18
2022-07-29T09:03:21.489Z,6.70
2022-07-29T09:08:24.816Z,12.88
2022-07-29T09:13:27.358Z,7.22
2022-07-29T09:18:44.053Z,6.60
2022-07-29T09:24:13.127Z,17.20
2022-07-29T09:29:21.891Z,9.07
2022-07-29T09:34:29.590Z,10.02
2022-07-29T09:39:47.908Z,13.07
2022-07-29T09:44:51.913Z,11.32
2022-07-29T09:50:01.004Z,9.32
2022-07-29T09:55:18.196Z,8.05
2022-07-29T10:00:24.313Z,7.30
2022-07-29T10:05:36.337Z,11.13
2022-07-29T10:10:43.830Z,7.63
2022-07-29T10:15:47.666Z,8.27
2022-07-29T10:20:50.637Z,6.68
2022-07-29T10:31:03.338Z,7.43
2022-07-29T10:36:15.871Z,9.27
2022-07-29T10:41:32.428Z,8.80
2022-07-29T10:46:47.026Z,6.38
2022-07-29T10:56:54.359Z,5.80
2022-07-29T11:02:27.762Z,4.93
2022-07-29T11:07:19.493Z,4.45
2022-07-29T11:12:40.164Z,8.82
2022-07-29T11:17:54.434Z,8.55
2022-07-29T11:22:56.797Z,5.72
2022-07-29T11:28:16.710Z,4.25
2022-07-29T11:33:54.731Z,5.43
2022-07-29T11:39:27.256Z,4.57
2022-07-29T11:45:44.753Z,7.63
2022-07-29T11:50:35.723Z,6.13
2022-07-29T11:55:50.908Z,5.18
2022-07-29T12:00:55.833Z,5.13
2022-07-29T12:05:58.529Z,6.05
2022-07-29T12:11:01.161Z,5.07
2022-07-29T12:16:04.803Z,5.70
2022-07-29T12:21:09.020Z,6.25
2022-07-29T12:26:21.885Z,5.15
2022-07-29T12:31:43.922Z,5.60
2022-07-29T12:36:47.892Z,4.82
2022-07-29T12:41:50.232Z,3.63
2022-07-29T12:47:05.250Z,3.35
2022-07-29T12:57:29.515Z,3.53
2022-07-29T13:07:54.244Z,4.43
2022-07-29T13:13:07.753Z,3.45
2022-07-29T13:18:28.553Z,4.25
2022-07-29T13:23:31.062Z,5.32
2022-07-29T13:28:44.212Z,2.20
2022-07-29T13:33:46.667Z,3.75
2022-07-29T13:38:49.051Z,3.72
2022-07-29T13:43:51.355Z,2.67
2022-07-29T13:48:53.696Z,2.83
2022-07-29T13:53:56.063Z,3.05
2022-07-29T13:58:58.662Z,4.47
2022-07-29T14:04:01.151Z,3.67
2022-07-29T14:09:07.557Z,3.60
2022-07-29T14:14:11.601Z,2.70
2022-07-29T14:19:13.975Z,4.22
2022-07-29T14:24:21.507Z,4.75
2022-07-29T14:29:25.504Z,1.90
2022-07-29T14:34:40.911Z,3.85
2022-07-29T14:44:45.877Z,4.05
2022-07-29T14:49:49.336Z,3.67
2022-07-29T14:54:51.614Z,3.85
2022-07-29T14:59:53.929Z,2.70
2022-07-29T15:04:56.251Z,4.10
2022-07-29T15:09:59.780Z,3.25
2022-07-29T15:15:02.107Z,4.30
2022-07-29T15:20:06.500Z,2.83
2022-07-29T15:25:09.461Z,3.40
2022-07-29T15:30:27.829Z,4.90
2022-07-29T15:35:39.908Z,4.20
2022-07-29T15:40:44.635Z,6.18
2022-07-29T15:46:07.068Z,4.47
2022-07-29T15:51:09.484Z,4.53
2022-07-29T15:56:11.852Z,5.40
2022-07-29T16:01:14.375Z,4.47
2022-07-29T16:06:17.743Z,6.55
2022-07-29T16:11:20.034Z,4.40
2022-07-29T16:16:22.469Z,4.35
2022-07-29T16:21:25.177Z,3.78
2022-07-29T16:26:27.925Z,8.45
2022-07-29T16:31:30.315Z,5.60
2022-07-29T16:36:32.644Z,3.05
2022-07-29T16:41:34.945Z,3.38
2022-07-29T16:46:39.622Z,6.10
2022-07-29T16:51:43.947Z,3.25
2022-07-29T16:56:46.435Z,3.92
2022-07-29T17:01:49.042Z,5.38
2022-07-29T17:06:51.429Z,4.30
2022-07-29T17:11:55.009Z,4.70
2022-07-29T17:17:03.263Z,3.35
2022-07-29T17:22:12.931Z,3.47
2022-07-29T17:27:18.329Z,3.53
2022-07-29T17:32:20.672Z,5.75
2022-07-29T17:37:22.994Z,4.20
2022-07-29T17:42:25.227Z,2.58
2022-07-29T17:47:27.480Z,3.72
2022-07-29T17:52:29.805Z,3.08
2022-07-29T17:57:32.154Z,4.10
2022-07-29T18:02:34.484Z,2.53
2022-07-29T18:07:36.976Z,4.45
2022-07-29T18:12:39.270Z,3.35
2022-07-29T18:17:52.985Z,3.25
2022-07-29T18:23:02.088Z,4.05
2022-07-29T18:33:24.439Z,3.50
2022-07-29T18:38:26.735Z,4.18
2022-07-29T18:43:29.100Z,4.25
2022-07-29T18:48:33.849Z,4.53
2022-07-29T18:53:36.618Z,4.38
2022-07-29T18:58:39.702Z,3.08
2022-07-29T19:03:42.076Z,2.58
2022-07-29T19:08:44.413Z,4.25
2022-07-29T19:13:46.706Z,4.53
2022-07-29T19:18:48.991Z,3.55
2022-07-29T19:24:06.395Z,7.13
2022-07-29T19:29:10.720Z,4.07
2022-07-29T19:34:13.188Z,4.10
2022-07-29T19:39:15.819Z,4.28
2022-07-29T19:44:18.251Z,3.72
2022-07-29T19:49:20.611Z,4.15
2022-07-29T19:54:22.905Z,4.32
2022-07-29T19:59:25.689Z,3.85
2022-07-29T20:04:32.019Z,5.30
2022-07-29T20:09:35.470Z,3.83
2022-07-29T20:14:38.346Z,3.67
2022-07-29T20:19:40.756Z,4.15
2022-07-29T20:24:43.070Z,6.32
2022-07-29T20:29:46.803Z,5.85
2022-07-29T20:34:49.123Z,6.22
2022-07-29T20:39:51.496Z,3.22
2022-07-29T20:44:54.296Z,3.30
2022-07-29T20:49:56.680Z,3.25
2022-07-29T20:54:58.996Z,5.25
2022-07-29T21:00:01.282Z,3.25
2022-07-29T21:05:03.759Z,7.15
2022-07-29T21:10:06.524Z,4.25
2022-07-29T21:15:09.275Z,6.53
2022-07-29T21:20:12.044Z,7.10
2022-07-29T21:25:14.431Z,5.60
2022-07-29T21:30:16.805Z,5.22
2022-07-29T21:35:45.333Z,5.13
2022-07-29T21:40:41.392Z,4.97
2022-07-29T21:45:44.343Z,5.63
2022-07-29T21:55:55.433Z,4.30
2022-07-29T22:00:58.031Z,5.50
2022-07-29T22:06:00.346Z,5.40
2022-07-29T22:11:02.789Z,5.43
2022-07-29T22:16:05.529Z,4.70
2022-07-29T22:21:08.277Z,6.97
2022-07-29T22:26:10.575Z,6.18
2022-07-29T22:31:12.935Z,5.90
2022-07-29T22:36:15.416Z,4.72
2022-07-29T22:41:17.822Z,6.40
2022-07-29T22:46:20.187Z,6.05
2022-07-29T22:51:22.546Z,5.30
2022-07-29T22:56:24.962Z,3.85
2022-07-29T23:02:19.965Z,5.25
2022-07-29T23:07:22.295Z,4.70
2022-07-29T23:12:24.552Z,4.53
2022-07-29T23:17:26.952Z,4.88
2022-07-29T23:22:29.344Z,5.80
2022-07-29T23:27:31.628Z,4.90
2022-07-29T23:32:33.955Z,5.45
2022-07-29T23:37:36.246Z,5.68
2022-07-29T23:42:38.719Z,5.20
2022-07-29T23:47:41.890Z,5.45
2022-07-29T23:52:45.019Z,5.05
2022-07-29T23:57:47.331Z,5.43
